Time;durP1;ratioP1;P1;durP2;ratioP2;P2;SDS_P1;SDS_P2;PMS_P1;PMS_P2;Temp;Humidity;BMP_temperature;BMP_pressure;BME280_temperature;BME280_humidity;BME280_pressure;Samples;Min_cycle;Max_cycle;Signal;HPM_P1;HPM_P2
2023/06/20 00:00:41;;;;;;;7.15;6.10;;;;;;;23.41;65.80;99328.56;1088039;54;20037;-86
2023/06/20 00:01:43;;;;;;;7.00;5.88;;;;;;;23.42;65.96;99324.75;1087457;46;20023;-86
2023/06/20 00:02:47;;;;;;;6.85;5.15;;;;;;;23.39;65.93;99323.38;1087558;47;20026;-86
2023/06/20 00:04:59;;;;;;;8.00;5.70;;;;;;;23.41;66.02;99318.50;1088060;54;20042;-87
2023/06/20 00:06:01;;;;;;;7.28;6.03;;;;;;;23.37;65.90;99322.78;1088038;54;20034;-87
2023/06/20 00:07:06;;;;;;;9.00;6.07;;;;;;;23.35;66.33;99338.56;1087670;47;20034;-88
2023/06/20 00:08:08;;;;;;;7.90;5.82;;;;;;;23.35;66.28;99330.38;1087768;54;20023;-86
2023/06/20 00:10:16;;;;;;;7.43;5.55;;;;;;;23.34;66.03;99334.16;1088562;54;20031;-88
2023/06/20 00:11:18;;;;;;;7.15;5.93;;;;;;;23.33;66.33;99335.25;1088134;54;20038;-87
2023/06/20 00:13:25;;;;;;;6.95;5.80;;;;;;;23.30;66.39;99339.28;1081611;54;20014;31
2023/06/20 00:14:30;;;;;;;8.25;5.70;;;;;;;23.34;66.22;99332.28;1083461;54;20018;31
2023/06/20 00:15:34;;;;;;;7.75;6.20;;;;;;;23.33;66.21;99338.00;1088124;54;20018;-86
2023/06/20 00:16:35;;;;;;;7.78;6.13;;;;;;;23.44;65.96;99350.69;1087557;47;20022;-86
2023/06/20 00:18:42;;;;;;;7.57;6.10;;;;;;;23.49;65.59;99348.06;1088030;54;20019;-88
2023/06/20 00:21:13;;;;;;;7.20;6.07;;;;;;;23.38;65.93;99357.16;1088129;54;20042;-87
2023/06/20 00:23:20;;;;;;;7.20;5.95;;;;;;;23.30;66.01;99371.19;1088187;54;20015;-84
2023/06/20 00:24:25;;;;;;;8.75;6.30;;;;;;;23.32;66.28;99366.34;1081840;47;21016;31
2023/06/20 00:26:44;;;;;;;7.40;6.18;;;;;;;23.35;66.35;99363.09;1085146;54;20027;31
2023/06/20 00:27:46;;;;;;;7.65;5.72;;;;;;;23.33;65.88;99362.53;1088034;46;21095;-87
2023/06/20 00:28:52;;;;;;;7.32;5.85;;;;;;;23.32;66.22;99363.59;1087846;54;20082;-85
2023/06/20 00:32:15;;;;;;;8.75;5.85;;;;;;;23.17;66.77;99370.38;1089022;39;20724;-86
2023/06/20 00:33:18;;;;;;;8.85;6.40;;;;;;;23.12;67.05;99375.75;1087509;47;20061;-86
2023/06/20 00:34:23;;;;;;;7.75;6.25;;;;;;;23.08;67.47;99381.94;1087623;46;20037;-85
2023/06/20 00:35:24;;;;;;;8.07;5.68;;;;;;;23.14;67.42;99380.94;1087527;47;20030;-86
2023/06/20 00:36:31;;;;;;;8.95;6.55;;;;;;;23.03;67.56;99390.84;1087367;47;20033;-85
2023/06/20 00:38:39;;;;;;;8.25;6.65;;;;;;;22.92;68.45;99397.16;1088661;54;20090;-86
2023/06/20 00:42:07;;;;;;;8.68;7.22;;;;;;;22.57;69.91;99405.19;1079704;54;20958;31
2023/06/20 00:43:12;;;;;;;9.13;7.13;;;;;;;22.55;70.48;99404.59;1077507;47;19984;31
2023/06/20 00:44:18;;;;;;;11.00;7.13;;;;;;;22.62;70.16;99409.06;1081732;46;20026;31
2023/06/20 00:45:30;;;;;;;8.35;6.95;;;;;;;22.59;70.49;99415.84;1087747;47;20022;-85
2023/06/20 00:46:37;;;;;;;8.07;7.07;;;;;;;22.55;70.22;99415.50;1088030;46;20032;-84
2023/06/20 00:55:03;;;;;;;10.65;7.50;;;;;;;22.43;72.16;99482.75;1077506;54;20019;31
2023/06/20 00:56:06;;;;;;;12.02;7.72;;;;;;;22.40;71.83;99492.22;1087705;54;20010;-85
2023/06/20 04:00:31;;;;;;;7.75;5.35;;;;;;;21.55;78.49;99488.66;1087423;46;20023;-87
2023/06/20 05:04:16;;;;;;;;;;;;;;;21.79;74.57;99518.69;1086946;54;20027;-85
2023/06/20 05:05:19;;;;;;;6.15;4.65;;;;;;;21.86;73.86;99521.34;1086864;54;19999;-84
2023/06/20 05:07:42;;;;;;;6.63;4.88;;;;;;;21.96;73.53;99516.97;1087253;47;20928;-83
2023/06/20 05:08:44;;;;;;;5.28;4.10;;;;;;;22.02;73.55;99520.66;1087659;39;20763;-83
2023/06/20 05:14:06;;;;;;;;;;;;;;;;;;;;;
2023/06/20 05:15:28;;;;;;;7.18;4.30;;;;;;;21.89;73.49;99518.97;1091143;39;20787;-83
2023/06/20 05:16:34;;;;;;;5.72;4.20;;;;;;;21.91;73.41;99507.84;1087146;47;20035;-85
2023/06/20 05:17:35;;;;;;;6.38;4.63;;;;;;;21.95;73.46;99518.03;1086430;54;20030;-82
2023/06/20 05:18:41;;;;;;;6.78;4.78;;;;;;;21.99;73.31;99514.84;1086491;54;20039;-84
2023/06/20 05:20:19;;;;;;;6.00;4.40;;;;;;;22.05;73.03;99520.19;1086972;54;20031;-84
2023/06/20 05:21:43;;;;;;;6.22;4.18;;;;;;;22.12;72.90;99520.06;1086697;46;20030;-84
2023/06/20 05:22:50;;;;;;;5.30;3.97;;;;;;;22.17;72.46;99525.66;1086960;54;20042;-84
2023/06/20 05:24:00;;;;;;;5.85;3.95;;;;;;;22.10;73.02;99527.66;1086895;47;20041;-85
2023/06/20 05:25:31;;;;;;;5.22;3.88;;;;;;;22.22;72.89;99527.69;1088636;39;21289;-84
2023/06/20 05:26:32;;;;;;;6.07;4.57;;;;;;;22.22;72.83;99528.50;1086255;47;20026;-78
2023/06/20 05:28:02;;;;;;;6.50;4.47;;;;;;;22.26;72.50;99528.84;1086412;54;20035;-79
2023/06/20 05:29:07;;;;;;;6.68;4.10;;;;;;;22.27;72.59;99527.78;1087061;47;21165;-84
2023/06/20 05:30:11;;;;;;;5.80;3.97;;;;;;;22.19;72.56;99520.81;1085943;54;20038;-81
2023/06/20 05:31:12;;;;;;;6.53;4.65;;;;;;;22.22;72.62;99525.78;1086173;54;20057;-81
2023/06/20 05:32:17;;;;;;;6.25;4.65;;;;;;;22.23;72.29;99527.44;1086374;46;20094;-86
2023/06/20 05:33:18;;;;;;;6.75;4.70;;;;;;;22.26;72.15;99526.97;1086835;54;20042;-84
2023/06/20 05:34:22;;;;;;;5.95;4.35;;;;;;;22.31;72.06;99525.44;1086875;54;20042;-82
2023/06/20 05:36:44;;;;;;;7.05;4.93;;;;;;;22.33;71.55;99523.31;1087095;47;20041;-78
2023/06/20 05:37:49;;;;;;;5.57;4.40;;;;;;;22.29;71.82;99526.50;1085885;47;20030;-84
2023/06/20 05:38:52;;;;;;;5.88;3.90;;;;;;;22.39;71.63;99527.81;1084760;39;20643;-80
2023/06/20 05:39:54;;;;;;;7.22;4.60;;;;;;;22.46;71.41;99531.28;1085077;54;20038;-84
2023/06/20 05:40:58;;;;;;;5.90;4.20;;;;;;;22.48;71.29;99528.31;1085093;47;20039;-79
2023/06/20 05:42:00;;;;;;;14.75;4.70;;;;;;;22.52;70.91;99518.63;1085295;54;20096;-79
2023/06/20 05:43:04;;;;;;;5.22;4.15;;;;;;;22.56;70.69;99525.25;1086156;54;20038;-77
2023/06/20 05:44:05;;;;;;;5.30;3.83;;;;;;;22.61;70.63;99527.25;1084580;54;20080;-80
2023/06/20 05:45:10;;;;;;;5.22;3.88;;;;;;;22.63;70.78;99530.59;1084622;54;20049;-84
2023/06/20 05:46:11;;;;;;;5.60;4.10;;;;;;;22.59;70.74;99525.59;1085603;47;20038;-79
2023/06/20 05:47:17;;;;;;;5.35;4.10;;;;;;;22.57;70.88;99533.19;1084928;47;20149;-80
2023/06/20 05:48:18;;;;;;;7.00;4.25;;;;;;;22.62;70.64;99527.03;1085747;54;20050;-78
2023/06/20 05:49:28;;;;;;;5.65;3.97;;;;;;;22.62;70.52;99531.63;1086582;47;20030;-81
2023/06/20 05:50:30;;;;;;;5.93;3.90;;;;;;;22.66;70.31;99530.94;1085514;47;20049;-81
2023/06/20 05:51:34;;;;;;;7.15;3.95;;;;;;;22.69;69.88;99535.06;1085981;54;20038;-81
2023/06/20 05:52:38;;;;;;;7.00;4.05;;;;;;;22.73;69.82;99536.25;1086005;47;20022;-78
2023/06/20 05:53:42;;;;;;;8.40;4.18;;;;;;;22.69;69.89;99538.63;1085374;54;20045;-80
2023/06/20 05:54:44;;;;;;;4.90;3.67;;;;;;;22.75;69.55;99536.88;1085174;47;20038;-81
2023/06/20 05:55:50;;;;;;;5.15;3.42;;;;;;;22.79;69.47;99534.50;1085143;54;20066;-82
2023/06/20 05:56:56;;;;;;;6.50;3.67;;;;;;;22.80;69.29;99530.69;1086704;46;20026;-83
2023/06/20 05:57:57;;;;;;;5.95;4.07;;;;;;;22.83;69.18;99532.94;1086074;54;20050;-80
2023/06/20 05:59:01;;;;;;;5.82;4.57;;;;;;;22.87;68.97;99532.22;1087491;39;20363;-83
2023/06/20 06:00:11;;;;;;;6.00;3.92;;;;;;;22.92;69.01;99533.41;1086454;47;20023;-82
2023/06/20 06:01:21;;;;;;;5.57;3.78;;;;;;;22.84;69.13;99529.13;1084903;54;21060;-83
2023/06/20 06:02:26;;;;;;;5.45;3.90;;;;;;;22.69;69.57;99524.16;1085864;31;20660;-82
2023/06/20 06:03:31;;;;;;;6.38;4.22;;;;;;;22.72;69.38;99527.25;1085877;47;20090;-83
2023/06/20 06:04:33;;;;;;;4.93;3.72;;;;;;;22.83;69.14;99520.16;1086794;54;20092;-83
2023/06/20 06:05:39;;;;;;;5.28;4.10;;;;;;;22.88;69.26;99525.69;1085935;46;21126;-83
2023/06/20 06:06:43;;;;;;;5.35;3.83;;;;;;;22.93;69.03;99524.16;1087874;39;21290;-80
2023/06/20 06:07:51;;;;;;;5.88;4.07;;;;;;;22.92;68.69;99533.41;1086745;47;20030;-82
2023/06/20 06:08:58;;;;;;;5.93;4.07;;;;;;;22.92;69.03;99536.13;1086635;47;20030;-82
2023/06/20 06:10:29;;;;;;;4.97;3.88;;;;;;;22.97;68.65;99536.22;1086145;47;20034;-77
2023/06/20 06:11:52;;;;;;;;;;;;;;;;;;;;;
2023/06/20 06:13:38;;;;;;;5.15;3.65;;;;;;;22.95;67.90;99539.19;1086530;47;20075;-83
2023/06/20 06:15:11;;;;;;;;;;;;;;;;;;;;;
2023/06/20 06:16:29;;;;;;;5.53;4.18;;;;;;;22.96;67.65;99534.56;1084438;46;20042;-79
2023/06/20 06:17:45;;;;;;;7.65;4.25;;;;;;;22.97;67.24;99531.63;1085517;47;20094;-84
2023/06/20 06:18:46;;;;;;;6.63;4.32;;;;;;;22.97;67.53;99541.69;1084621;47;20073;-81
2023/06/20 06:19:50;;;;;;;6.45;3.65;;;;;;;23.05;67.56;99530.41;1085698;54;20048;-81
2023/06/20 06:20:51;;;;;;;5.80;3.70;;;;;;;23.03;67.54;99540.75;1084806;46;20042;-80
2023/06/20 06:21:55;;;;;;;5.07;3.65;;;;;;;23.14;67.43;99536.31;1084899;47;20125;-80
2023/06/20 06:22:59;;;;;;;8.38;4.40;;;;;;;23.11;67.21;99534.91;1085658;47;20062;-80
2023/06/20 06:24:03;;;;;;;5.60;3.90;;;;;;;23.19;66.83;99537.28;1085783;54;20037;-82
2023/06/20 06:25:07;;;;;;;5.30;3.58;;;;;;;23.25;66.63;99537.38;1085584;54;20030;-82
2023/06/20 06:26:11;;;;;;;5.60;3.70;;;;;;;23.25;66.50;99537.38;1086326;47;20019;-79
2023/06/20 06:27:12;;;;;;;5.38;3.90;;;;;;;23.31;66.27;99537.25;1086004;47;20030;-79
2023/06/20 06:28:32;;;;;;;5.88;4.25;;;;;;;23.29;66.34;99538.56;1087823;39;20911;-82
2023/06/20 06:29:39;;;;;;;5.97;3.80;;;;;;;23.33;65.91;99545.22;1085610;46;20038;-80
2023/06/20 06:30:43;;;;;;;5.28;3.88;;;;;;;23.30;66.16;99543.78;1086686;39;20620;-81
2023/06/20 06:31:47;;;;;;;6.13;4.07;;;;;;;23.38;66.14;99553.50;1085632;54;20058;-82
2023/06/20 06:32:49;;;;;;;7.45;4.07;;;;;;;23.36;66.07;99544.72;1086318;47;20055;-80
2023/06/20 06:34:01;;;;;;;5.75;3.78;;;;;;;23.34;65.86;99538.66;1086291;54;20039;-79
2023/06/20 06:35:21;;;;;;;7.82;4.20;;;;;;;23.30;66.09;99541.06;1084929;54;20039;-81
2023/06/20 06:36:24;;;;;;;5.95;4.32;;;;;;;23.35;66.12;99552.09;1085657;47;20090;-81
2023/06/20 06:37:29;;;;;;;6.25;4.50;;;;;;;23.44;65.79;99536.16;1085695;54;20039;-84
2023/06/20 06:38:33;;;;;;;8.18;4.53;;;;;;;23.57;65.60;99547.84;1086658;54;20023;-83
2023/06/20 06:39:37;;;;;;;5.88;4.22;;;;;;;23.65;65.37;99547.47;1086602;54;20038;-85
2023/06/20 06:40:40;;;;;;;7.65;4.45;;;;;;;23.63;65.45;99546.88;1086603;54;20046;-84
2023/06/20 06:41:43;;;;;;;5.75;4.07;;;;;;;23.65;65.23;99548.31;1086701;47;20030;-84
2023/06/20 06:42:47;;;;;;;7.50;4.38;;;;;;;23.66;65.52;99551.84;1086793;47;20060;-84
2023/06/20 06:43:49;;;;;;;7.47;4.10;;;;;;;23.74;64.80;99547.91;1086669;47;20055;-83
2023/06/20 06:44:58;;;;;;;5.72;4.20;;;;;;;23.79;64.72;99546.13;1086599;47;20030;-84
2023/06/20 06:46:07;;;;;;;5.60;3.97;;;;;;;23.88;64.58;99543.81;1086623;47;20026;-83
2023/06/20 06:47:08;;;;;;;5.70;4.50;;;;;;;23.88;64.74;99546.53;1086718;47;20038;-83
2023/06/20 06:48:20;;;;;;;7.25;4.68;;;;;;;23.75;64.53;99544.13;1086750;54;20035;-83
2023/06/20 06:49:22;;;;;;;7.35;4.68;;;;;;;23.89;64.28;99541.91;1086477;47;20038;-81
2023/06/20 06:50:26;;;;;;;6.78;4.40;;;;;;;23.88;64.27;99542.97;1086529;46;20051;-80
2023/06/20 06:51:27;;;;;;;6.10;4.63;;;;;;;23.99;64.01;99553.06;1086402;47;20030;-84
2023/06/20 06:52:34;;;;;;;7.40;4.35;;;;;;;23.99;63.55;99547.59;1085672;47;20076;-82
2023/06/20 06:53:37;;;;;;;5.80;4.05;;;;;;;24.12;63.35;99551.91;1086611;39;20589;-79
2023/06/20 06:54:41;;;;;;;6.07;4.18;;;;;;;24.16;63.10;99549.50;1086289;54;20042;-80
2023/06/20 06:55:46;;;;;;;6.57;4.20;;;;;;;24.27;62.95;99543.97;1084655;47;20030;-79
2023/06/20 06:56:52;;;;;;;5.47;4.10;;;;;;;24.30;62.60;99542.63;1086014;54;20042;-79
2023/06/20 06:57:53;;;;;;;7.78;4.80;;;;;;;24.34;62.83;99543.81;1085508;54;20086;-81
2023/06/20 06:59:01;;;;;;;7.10;4.53;;;;;;;24.37;62.53;99547.94;1085880;47;20737;-79
2023/06/20 07:00:07;;;;;;;6.25;4.10;;;;;;;24.47;62.21;99548.09;1085476;54;20110;-80
2023/06/20 07:01:10;;;;;;;6.20;4.78;;;;;;;24.51;62.06;99532.03;1088078;39;20638;-80
2023/06/20 07:02:13;;;;;;;8.32;4.75;;;;;;;24.34;62.35;99543.81;1086163;54;20078;-80
2023/06/20 07:03:16;;;;;;;8.73;4.88;;;;;;;24.42;61.77;99540.66;1086930;39;21016;-81
2023/06/20 07:04:17;;;;;;;7.60;4.90;;;;;;;24.56;61.20;99532.94;1086353;54;20042;-80
2023/06/20 07:05:22;;;;;;;8.23;4.65;;;;;;;24.48;61.47;99538.84;1087090;39;20827;-82
2023/06/20 07:06:23;;;;;;;7.65;4.68;;;;;;;24.49;61.64;99539.66;1085075;54;20046;-80
2023/06/20 07:07:29;;;;;;;6.90;4.00;;;;;;;24.69;60.78;99540.00;1084876;47;20038;-78
2023/06/20 07:08:33;;;;;;;10.13;4.95;;;;;;;24.58;61.41;99538.16;1085346;54;20034;-80
2023/06/20 07:09:37;;;;;;;7.50;4.47;;;;;;;24.74;61.16;99537.34;1084983;47;20074;-77
2023/06/20 07:10:40;;;;;;;9.93;4.45;;;;;;;24.69;61.17;99540.00;1085834;54;20042;-79
2023/06/20 07:11:41;;;;;;;7.60;4.70;;;;;;;24.77;61.23;99534.09;1086756;39;20306;-79
2023/06/20 07:12:45;;;;;;;6.68;4.40;;;;;;;24.83;60.94;99532.28;1086555;47;20037;-78
2023/06/20 07:13:46;;;;;;;6.53;4.68;;;;;;;25.01;60.34;99536.63;1086445;54;20057;-77
2023/06/20 07:14:50;;;;;;;7.78;4.72;;;;;;;25.13;59.88;99536.50;1085828;54;20065;-78
2023/06/20 07:15:51;;;;;;;5.03;3.90;;;;;;;25.26;59.78;99526.28;1086323;47;20026;-80
2023/06/20 07:17:00;;;;;;;6.50;3.90;;;;;;;25.17;59.81;99529.47;1086688;47;20104;-81
2023/06/20 07:18:04;;;;;;;6.70;5.13;;;;;;;25.19;60.04;99531.94;1086433;47;20047;-78
2023/06/20 07:19:07;;;;;;;6.03;4.00;;;;;;;25.31;59.75;99534.53;1086449;54;20030;-76
2023/06/20 07:20:09;;;;;;;5.35;3.97;;;;;;;25.47;59.06;99532.84;1086502;54;20069;-80
2023/06/20 07:21:13;;;;;;;6.32;3.72;;;;;;;25.55;59.03;99529.63;1086317;47;20744;-81
2023/06/20 07:22:14;;;;;;;6.72;4.20;;;;;;;25.66;58.52;99528.69;1086035;47;20129;-80
2023/06/20 07:23:18;;;;;;;5.90;4.40;;;;;;;25.70;58.39;99527.06;1086125;47;20055;-80
2023/06/20 07:24:23;;;;;;;5.55;3.90;;;;;;;25.81;58.05;99527.16;1086726;54;20946;-81
2023/06/20 07:25:30;;;;;;;5.97;4.05;;;;;;;25.94;57.92;99517.69;1087559;39;21016;-82
2023/06/20 07:26:36;;;;;;;6.13;4.32;;;;;;;26.00;57.55;99524.91;1086568;54;20057;-85
2023/06/20 07:27:40;;;;;;;5.65;3.47;;;;;;;26.00;57.37;99514.75;1086675;47;20037;-81
2023/06/20 07:28:41;;;;;;;8.50;4.55;;;;;;;26.10;57.27;99511.31;1086691;47;20057;-77
2023/06/20 07:29:45;;;;;;;5.82;3.88;;;;;;;26.10;56.80;99511.31;1086637;54;20072;-81
2023/06/20 07:30:51;;;;;;;5.63;4.10;;;;;;;26.22;56.67;99511.16;1086430;54;20041;-79
2023/06/20 07:31:53;;;;;;;6.63;4.05;;;;;;;26.29;56.47;99511.75;1086757;54;20026;-81
2023/06/20 07:32:57;;;;;;;7.38;4.10;;;;;;;26.35;56.33;99511.78;1086642;47;20114;-82
2023/06/20 07:33:58;;;;;;;7.03;4.10;;;;;;;26.42;55.97;99510.47;1086672;54;20169;-78
2023/06/20 07:35:02;;;;;;;5.50;4.13;;;;;;;26.54;55.38;99504.81;1086359;54;20038;-76
2023/06/20 07:36:08;;;;;;;8.00;3.88;;;;;;;26.39;55.85;99518.38;1082783;54;20030;-80
2023/06/20 07:37:14;;;;;;;7.63;4.40;;;;;;;26.40;55.36;99511.81;1086791;47;20035;-80
2023/06/20 07:38:15;;;;;;;7.22;4.47;;;;;;;26.22;55.73;99515.78;1086537;47;20108;-80
2023/06/20 07:39:19;;;;;;;7.47;4.95;;;;;;;26.45;55.18;99509.13;1086547;54;20038;-78
2023/06/20 07:40:20;;;;;;;6.05;4.30;;;;;;;26.62;54.86;99509.78;1086545;54;20042;-79
2023/06/20 07:41:27;;;;;;;7.75;4.50;;;;;;;26.67;54.54;99505.41;1087162;39;20609;-80
2023/06/20 07:42:28;;;;;;;6.15;4.22;;;;;;;26.75;54.71;99510.41;1086603;54;20030;-80
2023/06/20 07:56:36;;;;;;;5.63;4.15;;;;;;;27.46;52.72;99517.34;1087178;54;20040;-84
2023/06/20 08:00:56;;;;;;;8.40;4.88;;;;;;;27.59;52.51;99513.28;1088697;39;20681;-85
2023/06/20 08:03:48;;;;;;;5.82;4.55;;;;;;;27.82;52.04;99519.38;1087636;46;20030;-85
2023/06/20 08:05:04;;;;;;;6.00;4.38;;;;;;;27.96;51.34;99519.66;1087545;47;20030;-84
2023/06/20 08:11:16;;;;;;;6.78;4.50;;;;;;;28.06;50.90;99516.88;1084959;54;20050;-85
2023/06/20 08:12:26;;;;;;;6.88;4.97;;;;;;;28.21;50.58;99515.28;1087359;47;20029;-83
2023/06/20 08:17:32;;;;;;;5.75;4.22;;;;;;;28.56;48.90;99513.59;1086702;46;20042;-85
2023/06/20 08:18:39;;;;;;;5.97;4.25;;;;;;;28.65;48.94;99498.19;1083956;54;20042;-83
2023/06/20 08:19:43;;;;;;;7.03;4.40;;;;;;;28.54;49.04;99504.78;1087278;46;20061;-84
2023/06/20 08:20:45;;;;;;;6.00;4.47;;;;;;;28.31;49.12;99504.28;1087299;54;20034;-82
2023/06/20 08:21:49;;;;;;;7.55;4.95;;;;;;;28.51;48.98;99500.69;1087964;54;20057;-83
2023/06/20 08:22:53;;;;;;;6.70;4.97;;;;;;;28.35;49.18;99499.88;1087740;46;20058;-86
2023/06/20 08:25:06;;;;;;;9.60;4.78;;;;;;;28.57;48.52;99507.84;1080527;54;20085;31
2023/06/20 08:27:20;;;;;;;7.63;4.60;;;;;;;28.55;48.67;99509.19;1087739;54;20026;-85
2023/06/20 08:28:21;;;;;;;7.97;4.40;;;;;;;28.76;48.19;99505.34;1086896;47;20095;-84
2023/06/20 08:31:09;;;;;;;5.82;4.50;;;;;;;29.28;47.70;99499.66;1086996;47;20027;-82
2023/06/20 08:32:10;;;;;;;5.40;3.80;;;;;;;29.50;46.91;99496.53;1087750;31;20897;-82
2023/06/20 08:33:20;;;;;;;5.50;4.53;;;;;;;29.34;46.50;99503.22;1085393;54;20042;-81
2023/06/20 08:34:38;;;;;;;5.97;4.18;;;;;;;29.56;46.39;99502.84;1087257;46;20110;-82
2023/06/20 08:35:39;;;;;;;6.47;4.78;;;;;;;29.56;46.02;99503.66;1087338;47;20038;-82
2023/06/20 08:37:45;;;;;;;6.30;5.05;;;;;;;29.59;45.90;99490.41;1087524;54;20014;-83
2023/06/20 08:39:52;;;;;;;7.07;5.10;;;;;;;29.72;45.60;99495.28;1087622;54;20027;-83
2023/06/20 08:41:04;;;;;;;7.85;5.40;;;;;;;29.47;45.24;99494.34;1094116;31;20972;-84
2023/06/20 08:42:08;;;;;;;6.22;4.72;;;;;;;29.48;45.80;99484.13;1087201;54;20045;-83
2023/06/20 08:43:16;;;;;;;6.70;5.20;;;;;;;29.45;45.90;99490.22;1087081;54;20034;-80
2023/06/20 08:44:17;;;;;;;6.85;4.97;;;;;;;29.39;45.94;99479.22;1087107;54;20034;-81
2023/06/20 08:45:29;;;;;;;6.55;4.97;;;;;;;29.10;44.94;99481.84;1089151;39;20859;-84
2023/06/20 08:46:31;;;;;;;10.38;4.68;;;;;;;29.14;45.54;99487.59;1087043;47;20034;-82
2023/06/20 08:47:50;;;;;;;7.20;5.18;;;;;;;29.28;45.33;99483.16;1087408;47;20027;-84
2023/06/20 08:49:23;;;;;;;7.57;5.35;;;;;;;29.23;45.82;99492.25;1090744;39;21049;-82
2023/06/20 08:50:39;;;;;;;6.97;4.95;;;;;;;29.44;45.46;99488.59;1087948;31;20875;-83
2023/06/20 08:54:00;;;;;;;7.55;4.55;;;;;;;29.76;44.71;99482.59;1087774;46;20038;-81
2023/06/20 08:58:27;;;;;;;7.88;5.10;;;;;;;30.06;43.69;99485.41;1087423;54;21474;-84
2023/06/20 08:59:48;;;;;;;7.35;5.45;;;;;;;30.20;42.80;99475.38;1084063;47;20023;-83
2023/06/20 09:00:54;;;;;;;6.63;4.68;;;;;;;30.34;42.78;99476.34;1087178;47;20062;-83
2023/06/20 09:02:05;;;;;;;6.57;5.15;;;;;;;30.57;42.57;99473.94;1087008;47;20046;-85
2023/06/20 09:03:08;;;;;;;7.25;4.95;;;;;;;30.76;42.42;99470.41;1087172;47;20022;-83
2023/06/20 09:04:13;;;;;;;7.28;4.00;;;;;;;30.88;41.98;99467.25;1087570;47;20006;-86
2023/06/20 09:06:33;;;;;;;5.70;4.60;;;;;;;31.15;41.28;99458.38;1087168;47;20126;-86
2023/06/20 09:07:36;;;;;;;7.18;4.88;;;;;;;31.30;41.36;99457.34;1087534;54;20053;-85
2023/06/20 09:08:43;;;;;;;6.65;5.40;;;;;;;31.53;41.22;99457.56;1087066;47;20086;-85
2023/06/20 09:10:13;;;;;;;6.40;4.63;;;;;;;31.48;40.12;99463.16;1087316;47;20166;-84
2023/06/20 09:12:42;;;;;;;;;;;;;;;;;;;;;
2023/06/20 09:14:10;;;;;;;7.30;4.97;;;;;;;31.14;39.53;99459.50;1086899;46;20026;-82
2023/06/20 09:15:13;;;;;;;8.27;5.22;;;;;;;30.79;40.52;99464.31;1087459;47;20023;-84
2023/06/20 09:16:19;;;;;;;6.30;4.90;;;;;;;31.25;39.49;99457.41;1087007;54;21075;-84
2023/06/20 09:17:21;;;;;;;6.60;5.00;;;;;;;31.49;39.44;99454.56;1087042;47;20033;-83
2023/06/20 09:18:27;;;;;;;6.45;4.90;;;;;;;31.61;39.13;99450.53;1087185;54;20061;-84
2023/06/20 09:19:49;;;;;;;7.03;4.68;;;;;;;31.74;38.06;99449.81;1087219;47;20103;-87
2023/06/20 09:21:27;;;;;;;6.30;4.78;;;;;;;31.77;38.78;99446.44;1087216;54;20030;-85
2023/06/20 09:22:30;;;;;;;6.47;4.82;;;;;;;32.00;38.09;99447.44;1087284;47;20026;-83
2023/06/20 09:23:34;;;;;;;6.53;4.80;;;;;;;31.92;38.71;99450.09;1087207;46;20042;-84
2023/06/20 09:24:42;;;;;;;6.47;5.40;;;;;;;32.05;38.16;99449.28;1087840;31;20980;-85
2023/06/20 09:26:51;;;;;;;7.18;4.97;;;;;;;31.89;38.68;99452.31;1087942;54;20042;-87
2023/06/20 09:28:41;;;;;;;6.72;5.00;;;;;;;31.95;37.85;99453.06;1087068;47;21284;-86
2023/06/20 09:30:00;;;;;;;7.10;4.90;;;;;;;31.93;38.07;99440.69;1087184;46;20033;-84
2023/06/20 09:31:09;;;;;;;5.95;5.28;;;;;;;31.96;38.08;99445.56;1086738;47;21112;-85
2023/06/20 09:36:23;;;;;;;;;;;;;;;31.37;38.23;99443.16;1087807;54;20025;-85
2023/06/20 09:38:07;;;;;;;6.78;5.38;;;;;;;31.02;39.08;99445.28;1087533;54;19994;-85
2023/06/20 09:40:45;;;;;;;7.68;4.72;;;;;;;31.38;38.32;99439.28;1087431;54;20959;-84
2023/06/20 09:42:06;;;;;;;6.10;4.90;;;;;;;31.67;37.65;99430.88;1089453;39;20710;-83
2023/06/20 09:43:09;;;;;;;6.63;4.97;;;;;;;31.86;37.63;99425.28;1086954;54;20030;-84
2023/06/20 09:45:52;;;;;;;6.95;4.95;;;;;;;31.92;36.96;99425.22;1087573;54;20162;-85
2023/06/20 09:46:54;;;;;;;7.03;5.10;;;;;;;32.10;37.25;99418.81;1087091;54;20033;-86
2023/06/20 09:48:49;;;;;;;7.15;5.50;;;;;;;32.13;36.39;99429.25;1087292;47;20023;-86
2023/06/20 09:50:02;;;;;;;6.80;5.30;;;;;;;32.32;36.62;99422.84;1087209;54;20061;-85
2023/06/20 09:51:09;;;;;;;7.03;5.50;;;;;;;32.56;36.34;99419.91;1087395;54;20039;-85
2023/06/20 09:52:17;;;;;;;7.03;5.40;;;;;;;32.70;36.02;99419.88;1086999;47;20957;-84
2023/06/20 09:53:29;;;;;;;7.00;5.18;;;;;;;32.63;35.92;99428.63;1087089;47;20107;-83
2023/06/20 09:55:42;;;;;;;6.57;5.60;;;;;;;32.29;36.66;99420.72;1091928;39;21067;-84
2023/06/20 09:56:47;;;;;;;7.35;5.50;;;;;;;32.54;36.25;99422.16;1087290;46;20038;-84
2023/06/20 10:02:36;;;;;;;7.65;5.43;;;;;;;31.94;35.94;99414.66;1087751;54;20171;-84
2023/06/20 10:03:52;;;;;;;7.78;5.30;;;;;;;32.28;35.72;99408.00;1087941;54;20035;-84
2023/06/20 10:05:44;;;;;;;5.45;4.78;;;;;;;32.44;34.03;99412.13;1087438;47;20034;-86
2023/06/20 10:07:15;;;;;;;7.57;4.60;;;;;;;32.06;34.27;99412.25;1087427;47;20034;-84
2023/06/20 10:09:35;;;;;;;6.13;4.95;;;;;;;31.83;34.50;99412.09;1081727;47;20034;-85
2023/06/20 10:11:45;;;;;;;6.78;5.07;;;;;;;31.77;34.35;99412.47;1102655;39;21777;31
2023/06/20 10:12:59;;;;;;;6.25;5.05;;;;;;;31.98;34.35;99415.72;1078021;47;20026;-87
2023/06/20 10:17:41;;;;;;;7.30;4.57;;;;;;;32.55;33.74;99409.16;1082170;54;20035;-86
2023/06/20 10:21:52;;;;;;;6.65;5.03;;;;;;;33.13;33.44;99394.66;1077009;54;20106;31
2023/06/20 10:23:05;;;;;;;6.00;5.00;;;;;;;33.33;33.13;99402.81;1084708;46;20037;31
2023/06/20 10:26:48;;;;;;;6.60;5.13;;;;;;;33.43;32.85;99403.41;1087689;54;20031;-84
2023/06/20 10:27:58;;;;;;;6.85;4.88;;;;;;;33.62;32.80;99396.88;1086673;47;20221;-84
2023/06/20 10:31:00;;;;;;;6.40;4.93;;;;;;;33.59;31.79;99400.25;1087558;46;20074;-85
2023/06/20 10:32:09;;;;;;;7.30;5.15;;;;;;;33.57;32.24;99403.34;1087589;47;21221;-85
2023/06/20 10:33:13;;;;;;;7.75;4.60;;;;;;;32.96;32.50;99398.06;1087319;47;20046;-85
2023/06/20 10:38:10;;;;;;;7.95;5.10;;;;;;;33.27;31.71;99399.31;1087994;54;20023;-84
2023/06/20 10:41:06;;;;;;;6.90;5.30;;;;;;;33.54;31.79;99408.66;1090549;39;20810;31
2023/06/20 10:43:25;;;;;;;7.20;5.53;;;;;;;33.75;31.47;99398.72;1087971;54;20130;-86
2023/06/20 10:46:42;;;;;;;6.70;5.25;;;;;;;33.95;31.74;99401.34;1083167;47;20038;-88
2023/06/20 10:49:13;;;;;;;6.20;4.82;;;;;;;34.09;30.88;99401.25;1089281;39;20732;31
2023/06/20 10:50:18;;;;;;;6.72;4.60;;;;;;;33.99;30.72;99403.16;1085073;54;21028;-86
2023/06/20 10:52:46;;;;;;;7.25;5.20;;;;;;;33.72;30.38;99399.38;1084448;54;20011;31
2023/06/20 10:55:18;;;;;;;6.73;4.93;;;;;;;33.58;30.86;99399.41;1085028;54;19950;-86
2023/06/20 10:56:27;;;;;;;6.40;5.18;;;;;;;33.44;30.94;99398.66;1085478;47;20026;31
2023/06/20 10:57:41;;;;;;;7.28;4.90;;;;;;;33.66;30.53;99389.53;1080495;47;20030;-85
2023/06/20 10:58:52;;;;;;;6.15;4.88;;;;;;;33.70;30.12;99393.31;1087779;54;20789;-87
2023/06/20 10:59:53;;;;;;;6.43;4.80;;;;;;;33.83;29.91;99385.22;1086700;47;20026;-85
2023/06/20 11:00:57;;;;;;;5.75;4.38;;;;;;;33.92;29.90;99391.69;1086526;54;20035;-84
2023/06/20 11:01:59;;;;;;;6.18;4.05;;;;;;;34.12;29.84;99395.03;1086902;47;20022;-85
2023/06/20 11:04:08;;;;;;;6.03;3.95;;;;;;;34.35;29.63;99382.75;1079164;54;20018;31
2023/06/20 11:05:16;;;;;;;8.48;4.88;;;;;;;33.96;29.58;99392.69;1077164;54;20022;31
2023/06/20 11:08:31;;;;;;;5.53;4.50;;;;;;;33.87;28.82;99387.09;1090094;31;20015;-86
2023/06/20 11:10:42;;;;;;;6.40;4.37;;;;;;;33.74;28.72;99390.75;1077060;54;20037;31
2023/06/20 11:15:28;;;;;;;5.45;4.25;;;;;;;34.07;28.38;99382.13;1077123;54;20906;31
2023/06/20 11:17:34;;;;;;;5.20;4.30;;;;;;;34.72;28.06;99378.97;1089471;39;20989;-85
2023/06/20 11:18:43;;;;;;;5.90;4.13;;;;;;;34.83;27.77;99381.13;1081416;47;20086;-85
2023/06/20 11:19:47;;;;;;;5.38;4.10;;;;;;;34.80;28.16;99378.16;1086996;47;20023;-87
2023/06/20 11:21:55;;;;;;;6.15;3.95;;;;;;;35.22;27.52;99364.69;1076937;47;20031;31
2023/06/20 11:23:02;;;;;;;7.05;4.30;;;;;;;35.23;27.35;99371.88;1077256;47;20089;31
2023/06/20 11:24:10;;;;;;;5.07;3.78;;;;;;;35.22;27.65;99369.41;1077197;47;20081;31
2023/06/20 11:25:27;;;;;;;5.47;3.70;;;;;;;35.22;27.36;99370.25;1077025;47;20889;31
2023/06/20 11:29:54;;;;;;;6.10;3.92;;;;;;;34.59;28.17;99370.44;1077209;54;21607;31